Home   Weather   Russia   Voronezh   Past weeks
Flag for Russia

Past Weather in Voronezh, Russia — Yesterday and Last 2 Weeks

Currently: 54 °F. Clear. (Weather station: Voronez, Russia). See more current weather

Past Weather in Voronezh — Graph

°F

Voronezh Temperature Yesterday

Maximum temperature yesterday: 72 °F (at 2:30 pm)
Minimum temperature yesterday: 52 °F (at 5:00 am)
Average temperature yesterday: 63 °F

High & Low Weather Summary for the Past Weeks

 TemperatureHumidityPressure
High72 °F (Oct 2, 2:30 pm)100% (Sep 20, 5:30 am)30.07 "Hg (Sep 20, 5:30 am)
Low39 °F (Sep 22, 6:30 am)45% (Sep 20, 3:00 pm)29.33 "Hg (Oct 3, 4:30 am)
Average54 °F86%29.80 "Hg
* Reported Sep 18 8:00 pm — Oct 3 8:00 pm, Voronezh. Weather by CustomWeather, © 2022

Note: Actual official high and low records may vary slightly from our data, if they occured in-between our weather recording intervals... More about our weather records

Voronezh Weather History for the Previous 24 Hours

Scroll right to see more
 ConditionsComfort  
Time TempWeatherWind HumidityBarometerVisibility
8:00 pm
Mon, Oct 3
55 °FClear.13 mph77%29.77 "Hg10 mi
7:30 pm55 °FClear.8 mph77%29.74 "Hg10 mi
7:00 pm55 °FClear.10 mph72%29.74 "Hg10 mi
6:30 pm55 °FClear.10 mph72%29.74 "Hg10 mi
6:00 pm55 °FClear.10 mph72%29.74 "Hg10 mi
5:30 pm55 °FSunny.10 mph72%29.71 "Hg10 mi
5:00 pm55 °FSunny.10 mph72%29.71 "Hg10 mi
4:30 pm55 °FPartly sunny.8 mph72%29.71 "HgN/A
4:00 pm54 °FPartly sunny.10 mph72%29.68 "HgN/A
3:30 pm54 °FPartly sunny.13 mph67%29.68 "HgN/A
3:00 pm54 °FPartly sunny.13 mph67%29.68 "HgN/A
2:00 pm54 °FPartly sunny.17 mph72%29.65 "HgN/A
1:30 pm52 °FPartly sunny.17 mph72%29.62 "HgN/A
1:00 pm52 °FPartly sunny.15 mph72%29.62 "HgN/A
12:00 pm50 °FPartly sunny.15 mph76%29.59 "HgN/A
11:30 am50 °FOvercast.20 mph76%29.56 "HgN/A
11:00 am48 °FOvercast.15 mph87%29.53 "Hg6 mi
10:30 am50 °FPartly sunny.17 mph88%29.50 "Hg6 mi
10:00 am50 °FOvercast.13 mph88%29.50 "HgN/A
9:30 am52 °FLight rain. Overcast.15 mph88%29.47 "HgN/A
9:00 am52 °FOvercast.15 mph94%29.45 "HgN/A
8:30 am54 °FOvercast.13 mph88%29.45 "HgN/A
8:00 am54 °FOvercast.13 mph88%29.42 "HgN/A
7:30 am54 °FLight rain. Overcast.15 mph100%29.39 "Hg6 mi
6:30 am55 °FLight rain. Clear.6 mph94%29.36 "HgN/A
5:30 am57 °FLight rain. Low clouds.15 mph94%29.36 "Hg2 mi
4:30 am59 °FLight rain. Overcast.17 mph94%29.33 "Hg6 mi
4:00 am59 °FLight rain. Clear.15 mph94%29.36 "HgN/A
2:30 am61 °FLight rain. Overcast.8 mph94%29.42 "Hg4 mi
2:00 am61 °FLight rain. Overcast.6 mph94%29.42 "Hg4 mi
1:30 am61 °FOvercast.6 mph94%29.45 "HgN/A
1:00 am63 °FLight rain. Overcast.8 mph88%29.45 "HgN/A
12:30 am63 °FLight rain. Overcast.10 mph94%29.45 "HgN/A
11:30 pm
Sun, Oct 2
63 °FClear.10 mph88%29.45 "Hg10 mi
11:00 pm63 °FClear.13 mph88%29.47 "Hg10 mi
10:30 pm63 °FClear.13 mph88%29.47 "Hg10 mi
10:00 pm63 °FLight rain. Clear.10 mph94%29.50 "HgN/A
9:30 pm61 °FLight rain. Clear.10 mph100%29.50 "Hg4 mi
9:00 pm63 °FLight rain. Clear.13 mph88%29.50 "HgN/A
Weather by CustomWeather, © 2022

See weather overview